createdAt,value
2023-03-11T00:05:44.153Z,11.23
2023-03-11T00:12:26.368Z,8.00
2023-03-11T00:19:11.006Z,8.68
2023-03-11T00:25:53.486Z,5.53
2023-03-11T00:32:35.820Z,6.80
2023-03-11T00:39:18.115Z,6.88
2023-03-11T00:46:00.408Z,5.97
2023-03-11T00:52:42.688Z,8.38
2023-03-11T00:59:26.242Z,7.47
2023-03-11T01:06:09.142Z,7.25
2023-03-11T01:12:51.792Z,7.72
2023-03-11T01:19:34.309Z,6.82
2023-03-11T01:26:16.599Z,5.47
2023-03-11T01:32:59.146Z,6.82
2023-03-11T01:39:41.535Z,6.72
2023-03-11T01:46:33.338Z,6.28
2023-03-11T01:53:17.648Z,6.45
2023-03-11T02:00:02.487Z,4.75
2023-03-11T02:06:58.608Z,6.17
2023-03-11T02:13:41.974Z,6.10
2023-03-11T02:20:41.978Z,6.97
2023-03-11T02:27:28.652Z,5.32
2023-03-11T02:34:21.654Z,4.47
2023-03-11T02:41:06.994Z,3.83
2023-03-11T02:47:51.852Z,3.80
2023-03-11T02:54:34.499Z,3.73
2023-03-11T03:01:16.948Z,4.53
2023-03-11T03:08:02.782Z,3.67
2023-03-11T03:14:45.141Z,3.70
2023-03-11T03:21:27.584Z,5.32
2023-03-11T03:28:13.420Z,3.33
2023-03-11T03:35:00.675Z,2.80
2023-03-11T03:41:57.010Z,3.10
2023-03-11T03:48:42.328Z,3.40
2023-03-11T03:55:26.600Z,3.27
2023-03-11T04:02:09.825Z,2.45
2023-03-11T04:08:54.517Z,2.10
2023-03-11T04:15:41.616Z,2.63
2023-03-11T04:22:24.529Z,2.35
2023-03-11T04:29:06.887Z,2.50
2023-03-11T04:35:55.014Z,2.85
2023-03-11T04:42:39.211Z,2.05
2023-03-11T04:49:22.242Z,2.60
2023-03-11T04:56:06.300Z,2.17
2023-03-11T05:02:51.587Z,2.38
2023-03-11T05:09:35.481Z,3.00
2023-03-11T05:16:18.210Z,2.55
2023-03-11T05:23:01.249Z,3.63
2023-03-11T05:29:46.106Z,2.60
2023-03-11T05:36:29.709Z,2.72
2023-03-11T05:43:12.242Z,2.50
2023-03-11T05:49:57.727Z,2.85
2023-03-11T05:56:40.009Z,2.53
2023-03-11T06:03:23.219Z,3.22
2023-03-11T06:10:07.095Z,3.22
2023-03-11T06:16:49.482Z,2.22
2023-03-11T06:23:34.777Z,3.03
2023-03-11T06:30:19.008Z,2.65
2023-03-11T06:37:09.640Z,2.72
2023-03-11T06:43:51.963Z,2.90
2023-03-11T06:50:34.364Z,2.38
2023-03-11T06:57:18.611Z,2.15
2023-03-11T07:04:03.945Z,3.67
2023-03-11T07:10:59.067Z,2.20
2023-03-11T07:17:41.369Z,2.42
2023-03-11T07:24:24.708Z,2.25
2023-03-11T07:31:31.008Z,2.20
2023-03-11T07:38:13.289Z,3.78
2023-03-11T07:44:55.527Z,3.70
2023-03-11T07:51:41.118Z,4.30
2023-03-11T07:58:23.765Z,3.67
2023-03-11T08:05:06.996Z,2.97
2023-03-11T08:11:49.881Z,2.08
2023-03-11T08:18:33.197Z,2.38
2023-03-11T08:25:15.710Z,3.15
2023-03-11T08:31:57.976Z,2.75
2023-03-11T08:38:40.419Z,2.60
2023-03-11T08:45:23.133Z,2.65
2023-03-11T08:52:05.863Z,2.28
2023-03-11T08:58:48.247Z,3.53
2023-03-11T09:05:30.552Z,2.58
2023-03-11T09:12:14.171Z,2.38
2023-03-11T09:18:56.980Z,3.00
2023-03-11T09:25:39.567Z,2.63
2023-03-11T09:32:21.890Z,3.10
2023-03-11T09:39:04.264Z,2.28
2023-03-11T09:46:24.445Z,2.65
2023-03-11T09:53:31.403Z,2.38
2023-03-11T10:00:19.286Z,2.58
2023-03-11T10:07:07.011Z,2.20
2023-03-11T10:14:43.030Z,1.92
2023-03-11T10:21:50.825Z,2.40
2023-03-11T10:28:40.547Z,2.08
2023-03-11T10:35:29.596Z,2.92
2023-03-11T10:42:17.527Z,2.45
2023-03-11T10:48:59.720Z,2.83
2023-03-11T10:56:04.905Z,2.60
2023-03-11T11:09:35.094Z,1.73
2023-03-11T11:16:20.900Z,1.85
2023-03-11T11:23:04.419Z,1.90
2023-03-11T11:29:48.821Z,2.10
2023-03-11T11:36:36.131Z,1.43
2023-03-11T11:43:36.224Z,1.83
2023-03-11T11:50:45.586Z,2.08
2023-03-11T11:57:28.635Z,1.40
2023-03-11T12:04:37.102Z,1.52
2023-03-11T12:11:34.313Z,1.40
2023-03-11T12:18:40.135Z,1.95
2023-03-11T12:25:50.959Z,1.75
2023-03-11T12:32:46.925Z,1.67
2023-03-11T12:39:34.474Z,1.40
2023-03-11T12:46:18.034Z,1.23
2023-03-11T12:53:00.258Z,1.23
2023-03-11T13:00:18.979Z,1.58
2023-03-11T13:07:22.833Z,1.80
2023-03-11T13:14:34.376Z,1.77
2023-03-11T13:21:29.979Z,1.33
2023-03-11T13:28:46.155Z,1.30
2023-03-11T13:36:16.230Z,1.88
2023-03-11T13:43:04.856Z,2.15
2023-03-11T13:50:14.561Z,2.00
2023-03-11T13:57:01.005Z,1.75
2023-03-11T14:03:46.265Z,1.10
2023-03-11T14:10:30.733Z,1.08
2023-03-11T14:17:19.199Z,2.23
2023-03-11T14:24:03.905Z,1.02
2023-03-11T14:30:58.962Z,1.10
2023-03-11T14:37:41.139Z,0.88
2023-03-11T14:44:24.820Z,0.80
2023-03-11T14:51:29.614Z,0.70
2023-03-11T14:58:23.946Z,0.90
2023-03-11T15:05:26.920Z,0.80
2023-03-11T15:12:32.233Z,0.70
2023-03-11T15:19:33.292Z,0.75
2023-03-11T15:26:29.936Z,0.82
2023-03-11T15:33:32.968Z,0.80
2023-03-11T15:40:35.300Z,0.95
2023-03-11T15:47:24.875Z,1.00
2023-03-11T15:54:07.127Z,0.70
2023-03-11T16:00:56.569Z,0.65
2023-03-11T16:07:40.171Z,1.00
2023-03-11T16:14:22.676Z,1.00
2023-03-11T16:21:10.070Z,1.38
2023-03-11T16:27:54.976Z,1.30
2023-03-11T16:34:40.830Z,3.30
2023-03-11T16:41:23.142Z,7.63
2023-03-11T16:48:06.078Z,2.15
2023-03-11T16:54:48.884Z,2.60
2023-03-11T17:01:31.209Z,1.98
2023-03-11T17:08:13.624Z,2.00
2023-03-11T17:14:56.344Z,2.00
2023-03-11T17:21:39.133Z,3.92
2023-03-11T17:28:21.360Z,8.82
2023-03-11T17:35:04.228Z,8.10
2023-03-11T17:41:48.134Z,5.53
2023-03-11T17:48:30.306Z,5.53
2023-03-11T17:55:12.585Z,6.30
2023-03-11T18:01:54.866Z,4.95
2023-03-11T18:08:37.551Z,5.15
2023-03-11T18:15:20.173Z,7.03
2023-03-11T18:22:02.532Z,3.88
2023-03-11T18:28:45.508Z,8.93
2023-03-11T18:35:27.870Z,4.60
2023-03-11T18:42:10.156Z,4.03
2023-03-11T18:48:57.693Z,4.45
2023-03-11T18:55:39.985Z,6.93
2023-03-11T19:02:22.345Z,5.30
2023-03-11T19:09:06.660Z,3.70
2023-03-11T19:15:49.305Z,5.03
2023-03-11T19:22:31.580Z,3.60
2023-03-11T19:29:14.820Z,7.53
2023-03-11T19:36:00.531Z,3.33
2023-03-11T19:42:44.411Z,10.25
2023-03-11T19:49:26.792Z,8.55
2023-03-11T19:56:10.222Z,3.70
2023-03-11T20:02:56.820Z,16.77
2023-03-11T20:09:39.200Z,4.80
2023-03-11T20:16:22.603Z,5.68
2023-03-11T20:23:05.071Z,3.08
2023-03-11T20:29:47.361Z,2.97
2023-03-11T20:36:34.383Z,3.00
2023-03-11T20:43:16.877Z,4.70
2023-03-11T20:50:02.048Z,2.42
2023-03-11T20:56:44.594Z,2.38
2023-03-11T21:03:26.966Z,3.65
2023-03-11T21:10:12.322Z,8.10
2023-03-11T21:23:38.424Z,3.38
2023-03-11T21:30:21.225Z,2.83
2023-03-11T21:37:03.832Z,2.30
2023-03-11T21:43:46.927Z,3.50
2023-03-11T21:50:29.524Z,3.60
2023-03-11T21:57:11.876Z,4.35
2023-03-11T22:03:55.256Z,2.53
2023-03-11T22:10:38.867Z,7.28
2023-03-11T22:17:21.362Z,7.30
2023-03-11T22:24:03.969Z,2.25
2023-03-11T22:30:46.406Z,4.80
2023-03-11T22:37:28.801Z,4.63
2023-03-11T22:44:11.083Z,5.72
2023-03-11T22:50:53.303Z,4.20
2023-03-11T22:57:38.856Z,4.97
2023-03-11T23:04:21.311Z,3.83
2023-03-11T23:11:07.794Z,3.25
2023-03-11T23:17:50.336Z,3.80
2023-03-11T23:24:32.813Z,3.50
2023-03-11T23:31:16.559Z,4.32
2023-03-11T23:37:59.527Z,4.00
2023-03-11T23:44:41.759Z,3.75
2023-03-11T23:51:24.008Z,3.97
2023-03-11T23:58:06.854Z,3.33
